KAL5155 RKSS-RKPC
Flight info
| Callsign | KAL5155 |
|---|---|
| Flight time | 0h 49m |
| Altitude | 22000 |
| Route | BULTI Y711 DOTOL |
| Aircraft | A321/M-V/N |
Departure
| Time | 2026-05-07 10:30 |
|---|---|
| Airport | Gimpo International Airport (RKSS) |
Arrival
| Time | 2026-05-07 11:19 |
|---|---|
| Airport | Jeju International Airport (RKPC) |
| Time | Latitude | Longitude | Altitude | Speed | Heading |
|---|---|---|---|---|---|
| 2026-05-07 10:04 | 37.55618 | 126.80489 | 71 ft | 0 kts | 45° |
| 2026-05-07 10:18 | 37.55611 | 126.80480 | 70 ft | 2 kts | 44° |
| 2026-05-07 10:18 | 37.55600 | 126.80467 | 70 ft | 2 kts | 45° |
| 2026-05-07 10:18 | 37.55590 | 126.80454 | 69 ft | 2 kts | 45° |
| 2026-05-07 10:18 | 37.55579 | 126.80441 | 68 ft | 2 kts | 45° |
| 2026-05-07 10:19 | 37.55568 | 126.80428 | 68 ft | 2 kts | 45° |
| 2026-05-07 10:19 | 37.55558 | 126.80414 | 67 ft | 2 kts | 45° |
| 2026-05-07 10:19 | 37.55547 | 126.80400 | 66 ft | 2 kts | 47° |
| 2026-05-07 10:19 | 37.55541 | 126.80383 | 66 ft | 2 kts | 82° |
| 2026-05-07 10:20 | 37.55541 | 126.80364 | 66 ft | 2 kts | 109° |
| 2026-05-07 10:20 | 37.55548 | 126.80349 | 66 ft | 0 kts | 134° |
| 2026-05-07 10:20 | 37.55553 | 126.80344 | 66 ft | 1 kts | 140° |
| 2026-05-07 10:20 | 37.55554 | 126.80343 | 66 ft | 0 kts | 139° |
| 2026-05-07 10:22 | 37.55541 | 126.80357 | 66 ft | 4 kts | 139° |
| 2026-05-07 10:22 | 37.55511 | 126.80391 | 65 ft | 7 kts | 137° |
| 2026-05-07 10:22 | 37.55468 | 126.80445 | 64 ft | 10 kts | 135° |
| 2026-05-07 10:23 | 37.55409 | 126.80518 | 62 ft | 13 kts | 135° |
| 2026-05-07 10:23 | 37.55338 | 126.80608 | 60 ft | 15 kts | 135° |
| 2026-05-07 10:23 | 37.55268 | 126.80648 | 59 ft | 11 kts | 202° |
| 2026-05-07 10:23 | 37.55192 | 126.80572 | 54 ft | 16 kts | 225° |
| 2026-05-07 10:24 | 37.55119 | 126.80574 | 52 ft | 11 kts | 142° |
| 2026-05-07 10:24 | 37.55057 | 126.80653 | 51 ft | 13 kts | 135° |
| 2026-05-07 10:24 | 37.54986 | 126.80741 | 51 ft | 15 kts | 136° |
| 2026-05-07 10:24 | 37.54907 | 126.80814 | 50 ft | 10 kts | 181° |
| 2026-05-07 10:25 | 37.54866 | 126.80798 | 51 ft | 0 kts | 215° |
| 2026-05-07 10:26 | 37.54863 | 126.80797 | 51 ft | 1 kts | 216° |
| 2026-05-07 10:26 | 37.54847 | 126.80778 | 52 ft | 4 kts | 225° |
| 2026-05-07 10:27 | 37.54821 | 126.80745 | 54 ft | 5 kts | 225° |
| 2026-05-07 10:27 | 37.54798 | 126.80694 | 55 ft | 8 kts | 282° |
| 2026-05-07 10:27 | 37.54822 | 126.80653 | 55 ft | 0 kts | 315° |
| 2026-05-07 10:28 | 37.54823 | 126.80653 | 55 ft | 0 kts | 315° |
| 2026-05-07 10:28 | 37.54848 | 126.80621 | 55 ft | 23 kts | 315° |
| 2026-05-07 10:29 | 37.55162 | 126.80219 | 59 ft | 102 kts | 315° |
| 2026-05-07 10:29 | 37.55830 | 126.79384 | 71 ft | 165 kts | 313° |
| 2026-05-07 10:29 | 37.56668 | 126.78316 | 622 ft | 176 kts | 313° |
| 2026-05-07 10:30 | 37.58277 | 126.76169 | 2196 ft | 172 kts | 311° |
| 2026-05-07 10:30 | 37.59131 | 126.75030 | 2449 ft | 188 kts | 311° |
| 2026-05-07 10:30 | 37.60064 | 126.73795 | 2727 ft | 202 kts | 311° |
| 2026-05-07 10:30 | 37.61066 | 126.72473 | 3057 ft | 216 kts | 312° |
| 2026-05-07 10:31 | 37.61941 | 126.70866 | 3344 ft | 233 kts | 289° |
| 2026-05-07 10:31 | 37.62157 | 126.68818 | 3667 ft | 249 kts | 262° |
| 2026-05-07 10:31 | 37.61547 | 126.66768 | 4276 ft | 256 kts | 236° |
| 2026-05-07 10:31 | 37.60320 | 126.65116 | 4823 ft | 259 kts | 227° |
| 2026-05-07 10:32 | 37.59047 | 126.63509 | 5191 ft | 260 kts | 223° |
| 2026-05-07 10:32 | 37.57447 | 126.62482 | 5600 ft | 267 kts | 191° |
| 2026-05-07 10:32 | 37.55596 | 126.62755 | 6064 ft | 275 kts | 166° |
| 2026-05-07 10:32 | 37.53775 | 126.63566 | 6544 ft | 280 kts | 164° |
| 2026-05-07 10:33 | 37.51917 | 126.64238 | 7040 ft | 280 kts | 171° |
| 2026-05-07 10:33 | 37.50006 | 126.64753 | 7289 ft | 282 kts | 171° |
| 2026-05-07 10:33 | 37.48098 | 126.65253 | 7270 ft | 283 kts | 172° |
| 2026-05-07 10:33 | 37.46141 | 126.65743 | 7578 ft | 288 kts | 172° |
| 2026-05-07 10:34 | 37.44190 | 126.66216 | 8363 ft | 289 kts | 173° |
| 2026-05-07 10:34 | 37.42229 | 126.66682 | 9172 ft | 289 kts | 173° |
| 2026-05-07 10:34 | 37.40251 | 126.67142 | 9862 ft | 293 kts | 173° |
| 2026-05-07 10:34 | 37.38253 | 126.67602 | 10445 ft | 300 kts | 173° |
| 2026-05-07 10:35 | 37.36124 | 126.68086 | 10769 ft | 317 kts | 173° |
| 2026-05-07 10:35 | 37.33915 | 126.68586 | 11069 ft | 334 kts | 173° |
| 2026-05-07 10:35 | 37.31588 | 126.69112 | 11360 ft | 350 kts | 173° |
| 2026-05-07 10:35 | 37.29126 | 126.69671 | 11646 ft | 366 kts | 173° |
| 2026-05-07 10:36 | 37.26576 | 126.70250 | 11918 ft | 382 kts | 173° |
| 2026-05-07 10:36 | 37.23895 | 126.70859 | 12185 ft | 397 kts | 173° |
| 2026-05-07 10:36 | 37.21141 | 126.71485 | 12505 ft | 410 kts | 173° |
| 2026-05-07 10:36 | 37.18353 | 126.72121 | 13076 ft | 414 kts | 173° |
| 2026-05-07 10:37 | 37.15521 | 126.72769 | 13705 ft | 418 kts | 173° |
| 2026-05-07 10:37 | 37.12654 | 126.73422 | 14288 ft | 421 kts | 174° |
| 2026-05-07 10:37 | 37.09764 | 126.74077 | 14858 ft | 425 kts | 174° |
| 2026-05-07 10:37 | 37.06850 | 126.74734 | 15438 ft | 428 kts | 174° |
| 2026-05-07 10:38 | 37.03914 | 126.75397 | 16011 ft | 431 kts | 174° |
| 2026-05-07 10:38 | 37.00965 | 126.76062 | 16566 ft | 434 kts | 173° |
| 2026-05-07 10:38 | 36.97980 | 126.76736 | 17107 ft | 437 kts | 173° |
| 2026-05-07 10:38 | 36.95011 | 126.77406 | 17629 ft | 440 kts | 173° |
| 2026-05-07 10:39 | 36.91965 | 126.78095 | 18141 ft | 443 kts | 173° |
| 2026-05-07 10:39 | 36.88925 | 126.78783 | 18624 ft | 446 kts | 174° |
| 2026-05-07 10:39 | 36.85848 | 126.79477 | 19099 ft | 449 kts | 174° |
| 2026-05-07 10:39 | 36.82787 | 126.80165 | 19561 ft | 452 kts | 174° |
| 2026-05-07 10:40 | 36.79653 | 126.80870 | 20020 ft | 455 kts | 174° |
| 2026-05-07 10:40 | 36.76530 | 126.81571 | 20456 ft | 458 kts | 174° |
| 2026-05-07 10:40 | 36.73369 | 126.82169 | 20891 ft | 459 kts | 178° |
| 2026-05-07 10:40 | 36.70224 | 126.82549 | 21322 ft | 460 kts | 181° |
| 2026-05-07 10:41 | 36.67051 | 126.82729 | 21731 ft | 438 kts | 183° |
| 2026-05-07 10:41 | 36.64108 | 126.82854 | 21866 ft | 425 kts | 184° |
| 2026-05-07 10:41 | 36.61155 | 126.82964 | 21900 ft | 426 kts | 184° |
| 2026-05-07 10:41 | 36.58179 | 126.83073 | 22359 ft | 426 kts | 184° |
| 2026-05-07 10:42 | 36.55233 | 126.83188 | 22987 ft | 424 kts | 184° |
| 2026-05-07 10:42 | 36.52287 | 126.83298 | 23430 ft | 425 kts | 184° |
| 2026-05-07 10:42 | 36.49332 | 126.83407 | 23782 ft | 428 kts | 184° |
| 2026-05-07 10:42 | 36.46392 | 126.83515 | 23865 ft | 429 kts | 184° |
| 2026-05-07 10:43 | 36.43411 | 126.83627 | 23876 ft | 428 kts | 184° |
| 2026-05-07 10:43 | 36.40449 | 126.83715 | 23884 ft | 427 kts | 186° |
| 2026-05-07 10:43 | 36.37498 | 126.83633 | 23894 ft | 424 kts | 189° |
| 2026-05-07 10:43 | 36.34572 | 126.83358 | 23905 ft | 423 kts | 191° |
| 2026-05-07 10:44 | 36.31654 | 126.83040 | 23915 ft | 423 kts | 191° |
| 2026-05-07 10:44 | 36.28710 | 126.82719 | 23925 ft | 423 kts | 191° |
| 2026-05-07 10:44 | 36.25770 | 126.82399 | 23931 ft | 423 kts | 191° |
| 2026-05-07 10:44 | 36.22854 | 126.82083 | 23935 ft | 423 kts | 191° |
| 2026-05-07 10:45 | 36.19922 | 126.81767 | 23937 ft | 423 kts | 191° |
| 2026-05-07 10:45 | 36.16982 | 126.81448 | 23939 ft | 423 kts | 191° |
| 2026-05-07 10:45 | 36.14064 | 126.81131 | 23940 ft | 423 kts | 191° |
| 2026-05-07 10:45 | 36.11137 | 126.80810 | 23939 ft | 423 kts | 191° |
| 2026-05-07 10:46 | 36.08211 | 126.80490 | 23939 ft | 422 kts | 191° |
| 2026-05-07 10:46 | 36.05285 | 126.80172 | 23939 ft | 422 kts | 191° |
| 2026-05-07 10:46 | 36.02354 | 126.79855 | 23939 ft | 423 kts | 191° |
| 2026-05-07 10:46 | 35.99460 | 126.79542 | 23939 ft | 423 kts | 191° |
| 2026-05-07 10:47 | 35.96499 | 126.79223 | 23940 ft | 423 kts | 191° |
| 2026-05-07 10:47 | 35.93569 | 126.78907 | 23939 ft | 423 kts | 191° |
| 2026-05-07 10:47 | 35.90650 | 126.78592 | 23939 ft | 423 kts | 191° |
| 2026-05-07 10:47 | 35.87692 | 126.78270 | 23939 ft | 423 kts | 191° |
| 2026-05-07 10:48 | 35.84755 | 126.77953 | 23939 ft | 423 kts | 191° |
| 2026-05-07 10:48 | 35.81825 | 126.77635 | 23940 ft | 423 kts | 191° |
| 2026-05-07 10:48 | 35.78904 | 126.77319 | 23940 ft | 422 kts | 191° |
| 2026-05-07 10:48 | 35.75980 | 126.77003 | 23940 ft | 423 kts | 191° |
| 2026-05-07 10:49 | 35.73030 | 126.76685 | 23940 ft | 423 kts | 191° |
| 2026-05-07 10:49 | 35.70142 | 126.76376 | 23934 ft | 411 kts | 191° |
| 2026-05-07 10:49 | 35.67377 | 126.76087 | 23933 ft | 393 kts | 191° |
| 2026-05-07 10:49 | 35.64719 | 126.75809 | 23934 ft | 375 kts | 192° |
| 2026-05-07 10:50 | 35.62149 | 126.75532 | 23939 ft | 371 kts | 192° |
| 2026-05-07 10:50 | 35.59589 | 126.75249 | 23940 ft | 371 kts | 192° |
| 2026-05-07 10:50 | 35.57023 | 126.74968 | 23939 ft | 372 kts | 192° |
| 2026-05-07 10:50 | 35.54451 | 126.74689 | 23940 ft | 372 kts | 192° |
| 2026-05-07 10:51 | 35.51885 | 126.74413 | 23939 ft | 372 kts | 192° |
| 2026-05-07 10:51 | 35.49320 | 126.74137 | 23939 ft | 372 kts | 192° |
| 2026-05-07 10:51 | 35.46744 | 126.73860 | 23939 ft | 372 kts | 192° |
| 2026-05-07 10:51 | 35.44172 | 126.73584 | 23939 ft | 372 kts | 192° |
| 2026-05-07 10:52 | 35.41594 | 126.73307 | 23939 ft | 372 kts | 192° |
| 2026-05-07 10:52 | 35.39021 | 126.73032 | 23938 ft | 372 kts | 192° |
| 2026-05-07 10:52 | 35.36432 | 126.72755 | 23937 ft | 372 kts | 192° |
| 2026-05-07 10:52 | 35.33857 | 126.72480 | 23936 ft | 372 kts | 192° |
| 2026-05-07 10:53 | 35.31313 | 126.72208 | 23936 ft | 372 kts | 192° |
| 2026-05-07 10:53 | 35.28719 | 126.71931 | 23936 ft | 372 kts | 192° |
| 2026-05-07 10:53 | 35.26145 | 126.71656 | 23936 ft | 372 kts | 192° |
| 2026-05-07 10:53 | 35.23586 | 126.71383 | 23936 ft | 372 kts | 192° |
| 2026-05-07 10:54 | 35.21010 | 126.71109 | 23936 ft | 372 kts | 192° |
| 2026-05-07 10:54 | 35.18407 | 126.70832 | 23936 ft | 372 kts | 192° |
| 2026-05-07 10:54 | 35.15860 | 126.70561 | 23936 ft | 372 kts | 192° |
| 2026-05-07 10:54 | 35.13265 | 126.70285 | 23936 ft | 372 kts | 192° |
| 2026-05-07 10:55 | 35.10676 | 126.70009 | 23936 ft | 372 kts | 192° |
| 2026-05-07 10:55 | 35.08132 | 126.69736 | 23936 ft | 372 kts | 192° |
| 2026-05-07 10:55 | 35.05540 | 126.69459 | 23913 ft | 370 kts | 192° |
| 2026-05-07 10:55 | 35.03032 | 126.69193 | 23629 ft | 366 kts | 192° |
| 2026-05-07 10:56 | 35.00504 | 126.68920 | 23112 ft | 364 kts | 191° |
| 2026-05-07 10:56 | 34.97990 | 126.68649 | 22639 ft | 361 kts | 191° |
| 2026-05-07 10:56 | 34.95513 | 126.68382 | 22228 ft | 357 kts | 190° |
| 2026-05-07 10:56 | 34.93074 | 126.68123 | 21804 ft | 353 kts | 189° |
| 2026-05-07 10:57 | 34.90633 | 126.67864 | 21359 ft | 349 kts | 188° |
| 2026-05-07 10:57 | 34.88224 | 126.67610 | 20908 ft | 346 kts | 188° |
| 2026-05-07 10:57 | 34.85850 | 126.67363 | 20448 ft | 344 kts | 188° |
| 2026-05-07 10:57 | 34.83460 | 126.67117 | 19972 ft | 342 kts | 187° |
| 2026-05-07 10:58 | 34.81126 | 126.66875 | 19507 ft | 339 kts | 187° |
| 2026-05-07 10:58 | 34.78775 | 126.66629 | 19037 ft | 337 kts | 187° |
| 2026-05-07 10:58 | 34.76451 | 126.66386 | 18564 ft | 336 kts | 187° |
| 2026-05-07 10:58 | 34.74153 | 126.66145 | 18095 ft | 334 kts | 187° |
| 2026-05-07 10:59 | 34.71837 | 126.65901 | 17626 ft | 332 kts | 187° |
| 2026-05-07 10:59 | 34.69529 | 126.65659 | 17160 ft | 330 kts | 187° |
| 2026-05-07 10:59 | 34.67262 | 126.65421 | 16696 ft | 328 kts | 186° |
| 2026-05-07 10:59 | 34.65002 | 126.65184 | 16231 ft | 327 kts | 186° |
| 2026-05-07 11:00 | 34.62759 | 126.64949 | 15771 ft | 325 kts | 186° |
| 2026-05-07 11:00 | 34.60524 | 126.64715 | 15311 ft | 323 kts | 186° |
| 2026-05-07 11:00 | 34.58295 | 126.64481 | 14853 ft | 322 kts | 186° |
| 2026-05-07 11:00 | 34.56078 | 126.64249 | 14396 ft | 320 kts | 186° |
| 2026-05-07 11:01 | 34.53850 | 126.64016 | 14023 ft | 318 kts | 186° |
| 2026-05-07 11:01 | 34.51659 | 126.63788 | 13950 ft | 320 kts | 186° |
| 2026-05-07 11:01 | 34.49450 | 126.63557 | 13943 ft | 319 kts | 186° |
| 2026-05-07 11:01 | 34.47243 | 126.63327 | 13945 ft | 319 kts | 186° |
| 2026-05-07 11:02 | 34.45038 | 126.63097 | 13947 ft | 319 kts | 186° |
| 2026-05-07 11:02 | 34.42808 | 126.62864 | 13949 ft | 319 kts | 186° |
| 2026-05-07 11:02 | 34.40596 | 126.62633 | 13950 ft | 319 kts | 186° |
| 2026-05-07 11:02 | 34.38397 | 126.62402 | 13950 ft | 319 kts | 186° |
| 2026-05-07 11:03 | 34.36182 | 126.62171 | 13758 ft | 319 kts | 186° |
| 2026-05-07 11:03 | 34.33989 | 126.61942 | 13509 ft | 317 kts | 186° |
| 2026-05-07 11:03 | 34.31823 | 126.61716 | 13262 ft | 317 kts | 186° |
| 2026-05-07 11:03 | 34.29632 | 126.61488 | 13012 ft | 316 kts | 186° |
| 2026-05-07 11:04 | 34.27435 | 126.61259 | 12760 ft | 315 kts | 185° |
| 2026-05-07 11:04 | 34.25267 | 126.61034 | 12511 ft | 315 kts | 185° |
| 2026-05-07 11:04 | 34.23087 | 126.60807 | 12260 ft | 314 kts | 185° |
| 2026-05-07 11:04 | 34.20923 | 126.60581 | 12010 ft | 313 kts | 185° |
| 2026-05-07 11:05 | 34.18755 | 126.60355 | 11760 ft | 312 kts | 185° |
| 2026-05-07 11:05 | 34.16589 | 126.60131 | 11509 ft | 311 kts | 185° |
| 2026-05-07 11:05 | 34.14438 | 126.59907 | 11259 ft | 310 kts | 185° |
| 2026-05-07 11:05 | 34.12309 | 126.59687 | 11010 ft | 309 kts | 185° |
| 2026-05-07 11:06 | 34.10170 | 126.59465 | 10760 ft | 308 kts | 185° |
| 2026-05-07 11:06 | 34.08036 | 126.59244 | 10509 ft | 307 kts | 185° |
| 2026-05-07 11:06 | 34.05918 | 126.59024 | 10259 ft | 306 kts | 185° |
| 2026-05-07 11:06 | 34.03807 | 126.58806 | 10009 ft | 305 kts | 186° |
| 2026-05-07 11:07 | 34.01723 | 126.58762 | 9763 ft | 299 kts | 170° |
| 2026-05-07 11:07 | 33.99881 | 126.59762 | 9583 ft | 290 kts | 141° |
| 2026-05-07 11:07 | 33.98660 | 126.61633 | 9451 ft | 288 kts | 115° |
| 2026-05-07 11:07 | 33.98189 | 126.63978 | 9331 ft | 289 kts | 97° |
| 2026-05-07 11:08 | 33.97987 | 126.66381 | 9204 ft | 289 kts | 96° |
| 2026-05-07 11:08 | 33.97801 | 126.68784 | 9061 ft | 288 kts | 96° |
| 2026-05-07 11:08 | 33.97601 | 126.71192 | 8899 ft | 288 kts | 96° |
| 2026-05-07 11:08 | 33.97388 | 126.73598 | 8723 ft | 287 kts | 97° |
| 2026-05-07 11:09 | 33.97167 | 126.75988 | 8527 ft | 287 kts | 97° |
| 2026-05-07 11:09 | 33.96945 | 126.78343 | 8237 ft | 286 kts | 97° |
| 2026-05-07 11:09 | 33.96701 | 126.80714 | 7951 ft | 283 kts | 102° |
| 2026-05-07 11:09 | 33.95902 | 126.82839 | 7814 ft | 281 kts | 133° |
| 2026-05-07 11:10 | 33.94300 | 126.84135 | 7696 ft | 279 kts | 163° |
| 2026-05-07 11:10 | 33.92389 | 126.84376 | 7568 ft | 277 kts | 188° |
| 2026-05-07 11:10 | 33.90523 | 126.83848 | 7432 ft | 276 kts | 197° |
| 2026-05-07 11:10 | 33.88704 | 126.83227 | 7271 ft | 275 kts | 197° |
| 2026-05-07 11:11 | 33.86866 | 126.82620 | 7101 ft | 274 kts | 196° |
| 2026-05-07 11:11 | 33.85028 | 126.82039 | 6889 ft | 274 kts | 195° |
| 2026-05-07 11:11 | 33.83183 | 126.81473 | 6592 ft | 273 kts | 195° |
| 2026-05-07 11:11 | 33.81497 | 126.80967 | 6304 ft | 272 kts | 195° |
| 2026-05-07 11:12 | 33.79927 | 126.80500 | 6032 ft | 271 kts | 195° |
| 2026-05-07 11:12 | 33.78080 | 126.79954 | 5712 ft | 269 kts | 195° |
| 2026-05-07 11:12 | 33.76292 | 126.79427 | 5400 ft | 268 kts | 195° |
| 2026-05-07 11:12 | 33.74469 | 126.78891 | 5084 ft | 266 kts | 195° |
| 2026-05-07 11:13 | 33.72654 | 126.78358 | 4768 ft | 265 kts | 195° |
| 2026-05-07 11:13 | 33.70875 | 126.77835 | 4460 ft | 263 kts | 195° |
| 2026-05-07 11:13 | 33.69136 | 126.77325 | 4299 ft | 253 kts | 195° |
| 2026-05-07 11:13 | 33.67474 | 126.76839 | 4254 ft | 239 kts | 195° |
| 2026-05-07 11:14 | 33.65898 | 126.76364 | 4187 ft | 233 kts | 199° |
| 2026-05-07 11:14 | 33.64496 | 126.75328 | 4022 ft | 241 kts | 229° |
| 2026-05-07 11:14 | 33.63564 | 126.73698 | 3991 ft | 239 kts | 242° |
| 2026-05-07 11:14 | 33.62785 | 126.71935 | 3980 ft | 239 kts | 243° |
| 2026-05-07 11:15 | 33.61982 | 126.70186 | 3915 ft | 237 kts | 241° |
| 2026-05-07 11:15 | 33.61152 | 126.68500 | 3674 ft | 233 kts | 239° |
| 2026-05-07 11:15 | 33.60310 | 126.66856 | 3366 ft | 232 kts | 239° |
| 2026-05-07 11:15 | 33.59463 | 126.65221 | 3060 ft | 230 kts | 239° |
| 2026-05-07 11:16 | 33.58624 | 126.63601 | 2756 ft | 229 kts | 239° |
| 2026-05-07 11:16 | 33.57788 | 126.61983 | 2454 ft | 227 kts | 239° |
| 2026-05-07 11:16 | 33.56970 | 126.60397 | 2152 ft | 222 kts | 239° |
| 2026-05-07 11:16 | 33.56166 | 126.58842 | 1864 ft | 215 kts | 239° |
| 2026-05-07 11:17 | 33.55419 | 126.57394 | 1606 ft | 195 kts | 240° |
| 2026-05-07 11:17 | 33.54739 | 126.56077 | 1362 ft | 175 kts | 240° |
| 2026-05-07 11:17 | 33.54137 | 126.54912 | 1119 ft | 157 kts | 240° |
| 2026-05-07 11:17 | 33.53594 | 126.53860 | 899 ft | 141 kts | 240° |
| 2026-05-07 11:18 | 33.53084 | 126.52869 | 726 ft | 139 kts | 240° |
| 2026-05-07 11:18 | 33.52579 | 126.51886 | 553 ft | 139 kts | 240° |
| 2026-05-07 11:18 | 33.52075 | 126.50906 | 376 ft | 138 kts | 240° |
| 2026-05-07 11:18 | 33.51568 | 126.49928 | 189 ft | 138 kts | 240° |
| 2026-05-07 11:19 | 33.51102 | 126.49016 | 127 ft | 99 kts | 242° |
| 2026-05-07 11:19 | 33.50870 | 126.48560 | 127 ft | 49 kts | 239° |
| 2026-05-07 11:19 | 33.50676 | 126.48254 | 127 ft | 37 kts | 221° |
| 2026-05-07 11:19 | 33.50540 | 126.48170 | 127 ft | 19 kts | 163° |
| 2026-05-07 11:20 | 33.50520 | 126.48255 | 127 ft | 10 kts | 69° |
| 2026-05-07 11:20 | 33.50559 | 126.48336 | 127 ft | 12 kts | 58° |
| 2026-05-07 11:20 | 33.50605 | 126.48426 | 127 ft | 13 kts | 58° |
| 2026-05-07 11:20 | 33.50657 | 126.48526 | 127 ft | 14 kts | 58° |
| 2026-05-07 11:21 | 33.50714 | 126.48635 | 127 ft | 15 kts | 58° |
| 2026-05-07 11:21 | 33.50774 | 126.48751 | 127 ft | 16 kts | 58° |
| 2026-05-07 11:21 | 33.50834 | 126.48869 | 127 ft | 13 kts | 63° |
| 2026-05-07 11:21 | 33.50795 | 126.48929 | 127 ft | 10 kts | 146° |
| 2026-05-07 11:22 | 33.50735 | 126.48988 | 127 ft | 9 kts | 106° |
| 2026-05-07 11:22 | 33.50755 | 126.49070 | 127 ft | 11 kts | 90° |
| 2026-05-07 11:22 | 33.50710 | 126.49120 | 127 ft | 10 kts | 179° |
| 2026-05-07 11:22 | 33.50684 | 126.49124 | 127 ft | 1 kts | 161° |
| 2026-05-07 11:23 | 33.50671 | 126.49129 | 127 ft | 2 kts | 161° |
| 2026-05-07 11:23 | 33.50664 | 126.49133 | 127 ft | 0 kts | 149° |